sensor_id;sensor_type;location;lat;lon;timestamp;pressure;altitude;pressure_sealevel;temperature;humidity
76819;BME280;65772;51.096;17.006;2022-12-18T00:01:59;101883.38;;;-2.83;69.93
76819;BME280;65772;51.096;17.006;2022-12-18T00:04:30;101884.71;;;-2.84;69.80
76819;BME280;65772;51.096;17.006;2022-12-18T00:07:01;101889.52;;;-2.77;69.63
76819;BME280;65772;51.096;17.006;2022-12-18T00:09:32;101887.71;;;-2.69;69.75
76819;BME280;65772;51.096;17.006;2022-12-18T00:12:08;101885.27;;;-2.60;69.81
76819;BME280;65772;51.096;17.006;2022-12-18T00:14:44;101886.89;;;-2.56;69.81
76819;BME280;65772;51.096;17.006;2022-12-18T00:17:14;101889.19;;;-2.60;69.76
76819;BME280;65772;51.096;17.006;2022-12-18T00:19:45;101889.66;;;-2.61;69.77
76819;BME280;65772;51.096;17.006;2022-12-18T00:22:23;101888.30;;;-2.65;69.70
76819;BME280;65772;51.096;17.006;2022-12-18T00:24:53;101889.29;;;-2.68;69.31
76819;BME280;65772;51.096;17.006;2022-12-18T00:27:24;101889.74;;;-2.75;69.76
76819;BME280;65772;51.096;17.006;2022-12-18T00:29:54;101892.51;;;-2.78;69.95
76819;BME280;65772;51.096;17.006;2022-12-18T00:32:25;101898.09;;;-2.78;69.96
76819;BME280;65772;51.096;17.006;2022-12-18T00:34:55;101906.91;;;-2.78;69.83
76819;BME280;65772;51.096;17.006;2022-12-18T00:37:26;101911.24;;;-2.80;69.99
76819;BME280;65772;51.096;17.006;2022-12-18T00:39:57;101914.21;;;-2.79;70.01
76819;BME280;65772;51.096;17.006;2022-12-18T00:42:28;101918.89;;;-2.75;69.92
76819;BME280;65772;51.096;17.006;2022-12-18T00:45:16;101917.97;;;-2.76;69.88
76819;BME280;65772;51.096;17.006;2022-12-18T00:47:48;101922.98;;;-2.78;69.85
76819;BME280;65772;51.096;17.006;2022-12-18T00:50:18;101922.89;;;-2.80;69.72
76819;BME280;65772;51.096;17.006;2022-12-18T00:52:49;101931.14;;;-2.82;69.99
76819;BME280;65772;51.096;17.006;2022-12-18T00:55:20;101930.55;;;-2.82;69.99
76819;BME280;65772;51.096;17.006;2022-12-18T00:57:52;101933.55;;;-2.80;70.14
76819;BME280;65772;51.096;17.006;2022-12-18T01:00:23;101940.14;;;-2.80;70.03
76819;BME280;65772;51.096;17.006;2022-12-18T01:02:53;101944.71;;;-2.78;69.89
76819;BME280;65772;51.096;17.006;2022-12-18T01:05:24;101949.84;;;-2.78;69.98
76819;BME280;65772;51.096;17.006;2022-12-18T01:07:56;101954.34;;;-2.75;70.07
76819;BME280;65772;51.096;17.006;2022-12-18T01:10:27;101957.17;;;-2.68;69.67
76819;BME280;65772;51.096;17.006;2022-12-18T01:12:59;101961.58;;;-2.58;70.07
76819;BME280;65772;51.096;17.006;2022-12-18T01:15:29;101969.55;;;-2.46;70.11
76819;BME280;65772;51.096;17.006;2022-12-18T01:18:00;101973.84;;;-2.35;70.10
76819;BME280;65772;51.096;17.006;2022-12-18T01:20:31;101974.84;;;-2.28;69.72
76819;BME280;65772;51.096;17.006;2022-12-18T01:23:01;101979.48;;;-2.24;69.54
76819;BME280;65772;51.096;17.006;2022-12-18T01:25:32;101980.55;;;-2.21;69.51
76819;BME280;65772;51.096;17.006;2022-12-18T01:28:03;101979.81;;;-2.27;69.45
76819;BME280;65772;51.096;17.006;2022-12-18T01:30:34;101977.02;;;-2.31;69.59
76819;BME280;65772;51.096;17.006;2022-12-18T01:33:05;101980.52;;;-2.36;69.34
76819;BME280;65772;51.096;17.006;2022-12-18T01:35:42;101987.08;;;-2.40;69.35
76819;BME280;65772;51.096;17.006;2022-12-18T01:38:12;101988.64;;;-2.39;69.74
76819;BME280;65772;51.096;17.006;2022-12-18T01:40:43;101989.77;;;-2.36;69.58
76819;BME280;65772;51.096;17.006;2022-12-18T01:43:14;101986.50;;;-2.35;69.70
76819;BME280;65772;51.096;17.006;2022-12-18T01:45:44;101982.79;;;-2.33;69.65
76819;BME280;65772;51.096;17.006;2022-12-18T01:48:15;101983.61;;;-2.31;69.58
76819;BME280;65772;51.096;17.006;2022-12-18T01:50:45;101984.38;;;-2.29;69.49
76819;BME280;65772;51.096;17.006;2022-12-18T01:53:21;101985.16;;;-2.28;69.54
76819;BME280;65772;51.096;17.006;2022-12-18T01:55:55;101988.81;;;-2.32;69.48
76819;BME280;65772;51.096;17.006;2022-12-18T01:58:32;101991.92;;;-2.37;69.54
76819;BME280;65772;51.096;17.006;2022-12-18T02:01:06;101995.79;;;-2.43;69.34
76819;BME280;65772;51.096;17.006;2022-12-18T02:03:36;101994.59;;;-2.52;69.37
76819;BME280;65772;51.096;17.006;2022-12-18T02:06:12;101993.76;;;-2.58;69.44
76819;BME280;65772;51.096;17.006;2022-12-18T02:08:50;101993.31;;;-2.62;69.47
76819;BME280;65772;51.096;17.006;2022-12-18T02:11:37;101997.57;;;-2.67;69.71
76819;BME280;65772;51.096;17.006;2022-12-18T02:14:19;102002.04;;;-2.66;69.54
76819;BME280;65772;51.096;17.006;2022-12-18T02:16:55;102001.20;;;-2.66;69.73
76819;BME280;65772;51.096;17.006;2022-12-18T02:19:43;102000.20;;;-2.65;69.53
76819;BME280;65772;51.096;17.006;2022-12-18T02:22:26;102005.06;;;-2.68;69.76
76819;BME280;65772;51.096;17.006;2022-12-18T02:25:15;102005.30;;;-2.75;69.63
76819;BME280;65772;51.096;17.006;2022-12-18T02:27:50;102010.45;;;-2.71;69.57
76819;BME280;65772;51.096;17.006;2022-12-18T02:30:22;102014.20;;;-2.66;69.67
76819;BME280;65772;51.096;17.006;2022-12-18T02:32:54;102013.48;;;-2.57;69.45
76819;BME280;65772;51.096;17.006;2022-12-18T02:35:28;102018.06;;;-2.46;69.84
76819;BME280;65772;51.096;17.006;2022-12-18T02:38:00;102023.37;;;-2.35;69.75
76819;BME280;65772;51.096;17.006;2022-12-18T02:40:32;102023.61;;;-2.27;69.41
76819;BME280;65772;51.096;17.006;2022-12-18T02:43:08;102029.20;;;-2.28;69.41
76819;BME280;65772;51.096;17.006;2022-12-18T02:45:48;102028.48;;;-2.28;69.50
76819;BME280;65772;51.096;17.006;2022-12-18T02:48:23;102033.80;;;-2.30;69.31
76819;BME280;65772;51.096;17.006;2022-12-18T02:51:02;102033.85;;;-2.26;69.66
76819;BME280;65772;51.096;17.006;2022-12-18T02:53:38;102026.09;;;-2.22;69.53
76819;BME280;65772;51.096;17.006;2022-12-18T02:56:15;102027.36;;;-2.21;69.32
76819;BME280;65772;51.096;17.006;2022-12-18T02:58:54;102026.33;;;-2.23;69.13
76819;BME280;65772;51.096;17.006;2022-12-18T03:01:46;102025.98;;;-2.31;69.25
76819;BME280;65772;51.096;17.006;2022-12-18T03:04:25;102023.46;;;-2.37;69.09
76819;BME280;65772;51.096;17.006;2022-12-18T03:06:59;102025.64;;;-2.42;69.25
76819;BME280;65772;51.096;17.006;2022-12-18T03:09:34;102030.27;;;-2.42;69.24
76819;BME280;65772;51.096;17.006;2022-12-18T03:12:11;102031.30;;;-2.42;69.18
76819;BME280;65772;51.096;17.006;2022-12-18T03:15:00;102034.63;;;-2.42;69.44
76819;BME280;65772;51.096;17.006;2022-12-18T03:17:34;102031.19;;;-2.41;69.52
76819;BME280;65772;51.096;17.006;2022-12-18T03:20:10;102037.47;;;-2.42;69.43
76819;BME280;65772;51.096;17.006;2022-12-18T03:22:44;102038.33;;;-2.42;69.04
76819;BME280;65772;51.096;17.006;2022-12-18T03:25:17;102046.50;;;-2.42;69.41
76819;BME280;65772;51.096;17.006;2022-12-18T03:27:53;102049.49;;;-2.47;69.07
76819;BME280;65772;51.096;17.006;2022-12-18T03:30:29;102041.56;;;-2.51;69.46
76819;BME280;65772;51.096;17.006;2022-12-18T03:33:05;102037.83;;;-2.53;68.96
76819;BME280;65772;51.096;17.006;2022-12-18T03:35:41;102038.53;;;-2.52;69.27
76819;BME280;65772;51.096;17.006;2022-12-18T03:38:13;102042.33;;;-2.51;69.31
76819;BME280;65772;51.096;17.006;2022-12-18T03:40:53;102046.75;;;-2.49;69.25
76819;BME280;65772;51.096;17.006;2022-12-18T03:43:37;102053.15;;;-2.47;69.14
76819;BME280;65772;51.096;17.006;2022-12-18T03:46:16;102053.83;;;-2.47;69.20
76819;BME280;65772;51.096;17.006;2022-12-18T03:48:55;102052.29;;;-2.46;69.20
76819;BME280;65772;51.096;17.006;2022-12-18T03:51:33;102055.33;;;-2.39;68.91
76819;BME280;65772;51.096;17.006;2022-12-18T03:54:09;102061.80;;;-2.34;69.18
76819;BME280;65772;51.096;17.006;2022-12-18T03:56:49;102064.14;;;-2.28;68.69
76819;BME280;65772;51.096;17.006;2022-12-18T03:59:23;102062.60;;;-2.22;68.68
76819;BME280;65772;51.096;17.006;2022-12-18T04:01:56;102069.49;;;-2.13;68.67
76819;BME280;65772;51.096;17.006;2022-12-18T04:04:30;102073.08;;;-2.11;68.71
76819;BME280;65772;51.096;17.006;2022-12-18T04:07:02;102082.13;;;-2.16;68.28
76819;BME280;65772;51.096;17.006;2022-12-18T04:09:36;102083.21;;;-2.18;68.66
76819;BME280;65772;51.096;17.006;2022-12-18T04:12:10;102079.40;;;-2.16;68.53
76819;BME280;65772;51.096;17.006;2022-12-18T04:14:42;102078.52;;;-2.14;68.57
76819;BME280;65772;51.096;17.006;2022-12-18T04:17:15;102080.11;;;-2.14;68.57
76819;BME280;65772;51.096;17.006;2022-12-18T04:19:46;102085.90;;;-2.18;68.63
76819;BME280;65772;51.096;17.006;2022-12-18T04:22:17;102086.71;;;-2.21;68.46
76819;BME280;65772;51.096;17.006;2022-12-18T04:24:49;102088.90;;;-2.28;68.21
76819;BME280;65772;51.096;17.006;2022-12-18T04:27:26;102096.98;;;-2.33;68.36
76819;BME280;65772;51.096;17.006;2022-12-18T04:29:57;102095.48;;;-2.39;68.40
76819;BME280;65772;51.096;17.006;2022-12-18T04:32:27;102096.58;;;-2.41;68.30
76819;BME280;65772;51.096;17.006;2022-12-18T04:34:58;102098.05;;;-2.42;68.33
76819;BME280;65772;51.096;17.006;2022-12-18T04:37:28;102095.30;;;-2.42;68.49
76819;BME280;65772;51.096;17.006;2022-12-18T04:39:59;102093.98;;;-2.44;68.35
76819;BME280;65772;51.096;17.006;2022-12-18T04:42:35;102097.58;;;-2.48;68.16
76819;BME280;65772;51.096;17.006;2022-12-18T04:45:08;102102.84;;;-2.53;68.42
76819;BME280;65772;51.096;17.006;2022-12-18T04:47:39;102107.81;;;-2.53;68.21
76819;BME280;65772;51.096;17.006;2022-12-18T04:50:10;102110.33;;;-2.55;68.48
76819;BME280;65772;51.096;17.006;2022-12-18T04:52:40;102112.95;;;-2.54;68.56
76819;BME280;65772;51.096;17.006;2022-12-18T04:55:11;102113.90;;;-2.54;68.47
76819;BME280;65772;51.096;17.006;2022-12-18T04:57:41;102115.45;;;-2.54;68.38
76819;BME280;65772;51.096;17.006;2022-12-18T05:00:14;102119.38;;;-2.51;68.67
76819;BME280;65772;51.096;17.006;2022-12-18T05:02:44;102123.73;;;-2.49;68.57
76819;BME280;65772;51.096;17.006;2022-12-18T05:05:15;102122.54;;;-2.47;68.50
76819;BME280;65772;51.096;17.006;2022-12-18T05:07:45;102128.45;;;-2.45;68.36
76819;BME280;65772;51.096;17.006;2022-12-18T05:10:16;102133.61;;;-2.45;68.37
76819;BME280;65772;51.096;17.006;2022-12-18T05:12:47;102136.63;;;-2.44;68.24
76819;BME280;65772;51.096;17.006;2022-12-18T05:15:31;102134.89;;;-2.37;68.27
76819;BME280;65772;51.096;17.006;2022-12-18T05:18:03;102139.83;;;-2.31;68.25
76819;BME280;65772;51.096;17.006;2022-12-18T05:20:34;102143.04;;;-2.25;68.13
76819;BME280;65772;51.096;17.006;2022-12-18T05:23:04;102141.38;;;-2.17;67.98
76819;BME280;65772;51.096;17.006;2022-12-18T05:25:35;102146.86;;;-2.09;67.85
76819;BME280;65772;51.096;17.006;2022-12-18T05:28:05;102144.83;;;-2.02;67.60
76819;BME280;65772;51.096;17.006;2022-12-18T05:30:36;102143.75;;;-1.98;67.49
76819;BME280;65772;51.096;17.006;2022-12-18T05:33:06;102146.27;;;-1.97;67.35
76819;BME280;65772;51.096;17.006;2022-12-18T05:35:37;102150.43;;;-1.95;67.23
76819;BME280;65772;51.096;17.006;2022-12-18T05:38:07;102154.05;;;-1.94;67.14
76819;BME280;65772;51.096;17.006;2022-12-18T05:40:40;102149.78;;;-1.95;67.18
76819;BME280;65772;51.096;17.006;2022-12-18T05:43:11;102154.69;;;-1.99;66.96
76819;BME280;65772;51.096;17.006;2022-12-18T05:45:49;102160.31;;;-2.01;66.93
76819;BME280;65772;51.096;17.006;2022-12-18T05:48:20;102162.02;;;-2.03;66.84
76819;BME280;65772;51.096;17.006;2022-12-18T05:50:51;102167.85;;;-2.06;66.84
76819;BME280;65772;51.096;17.006;2022-12-18T05:53:22;102167.55;;;-2.10;66.41
76819;BME280;65772;51.096;17.006;2022-12-18T05:55:52;102171.38;;;-2.15;66.59
76819;BME280;65772;51.096;17.006;2022-12-18T05:58:23;102173.09;;;-2.19;66.68
76819;BME280;65772;51.096;17.006;2022-12-18T06:00:54;102180.68;;;-2.20;66.60
76819;BME280;65772;51.096;17.006;2022-12-18T06:03:24;102184.59;;;-2.23;66.50
76819;BME280;65772;51.096;17.006;2022-12-18T06:06:02;102179.70;;;-2.25;66.50
76819;BME280;65772;51.096;17.006;2022-12-18T06:08:32;102179.33;;;-2.28;66.58
76819;BME280;65772;51.096;17.006;2022-12-18T06:11:03;102182.70;;;-2.31;66.69
76819;BME280;65772;51.096;17.006;2022-12-18T06:13:33;102182.94;;;-2.33;66.64
76819;BME280;65772;51.096;17.006;2022-12-18T06:16:05;102181.33;;;-2.37;66.56
76819;BME280;65772;51.096;17.006;2022-12-18T06:18:37;102189.80;;;-2.39;66.38
76819;BME280;65772;51.096;17.006;2022-12-18T06:21:07;102195.74;;;-2.40;66.57
76819;BME280;65772;51.096;17.006;2022-12-18T06:23:38;102202.13;;;-2.40;66.53
76819;BME280;65772;51.096;17.006;2022-12-18T06:26:11;102203.70;;;-2.40;66.51
76819;BME280;65772;51.096;17.006;2022-12-18T06:28:42;102213.35;;;-2.42;66.64
76819;BME280;65772;51.096;17.006;2022-12-18T06:31:13;102212.64;;;-2.46;66.77
76819;BME280;65772;51.096;17.006;2022-12-18T06:33:44;102211.52;;;-2.50;66.57
76819;BME280;65772;51.096;17.006;2022-12-18T06:36:15;102210.30;;;-2.52;66.76
76819;BME280;65772;51.096;17.006;2022-12-18T06:38:46;102216.81;;;-2.55;66.78
76819;BME280;65772;51.096;17.006;2022-12-18T06:41:18;102227.79;;;-2.55;66.86
76819;BME280;65772;51.096;17.006;2022-12-18T06:43:49;102230.98;;;-2.55;66.72
76819;BME280;65772;51.096;17.006;2022-12-18T06:46:26;102233.23;;;-2.56;66.62
76819;BME280;65772;51.096;17.006;2022-12-18T06:48:56;102238.86;;;-2.55;67.14
76819;BME280;65772;51.096;17.006;2022-12-18T06:51:27;102236.78;;;-2.56;66.71
76819;BME280;65772;51.096;17.006;2022-12-18T06:53:57;102232.91;;;-2.56;66.88
76819;BME280;65772;51.096;17.006;2022-12-18T06:56:28;102236.45;;;-2.55;66.99
76819;BME280;65772;51.096;17.006;2022-12-18T06:58:59;102242.08;;;-2.56;66.91
76819;BME280;65772;51.096;17.006;2022-12-18T07:01:29;102244.80;;;-2.56;67.01
76819;BME280;65772;51.096;17.006;2022-12-18T07:04:00;102242.89;;;-2.55;66.83
76819;BME280;65772;51.096;17.006;2022-12-18T07:06:31;102239.20;;;-2.47;66.83
76819;BME280;65772;51.096;17.006;2022-12-18T07:09:01;102245.95;;;-2.41;66.79
76819;BME280;65772;51.096;17.006;2022-12-18T07:11:33;102249.69;;;-2.34;66.88
76819;BME280;65772;51.096;17.006;2022-12-18T07:14:04;102252.18;;;-2.29;66.35
76819;BME280;65772;51.096;17.006;2022-12-18T07:16:34;102258.09;;;-2.22;66.75
76819;BME280;65772;51.096;17.006;2022-12-18T07:19:05;102258.45;;;-2.16;66.52
76819;BME280;65772;51.096;17.006;2022-12-18T07:21:35;102266.17;;;-2.11;66.28
76819;BME280;65772;51.096;17.006;2022-12-18T07:24:07;102267.45;;;-2.07;66.52
76819;BME280;65772;51.096;17.006;2022-12-18T07:26:38;102266.71;;;-2.03;66.47
76819;BME280;65772;51.096;17.006;2022-12-18T07:29:09;102264.48;;;-1.99;66.32
76819;BME280;65772;51.096;17.006;2022-12-18T07:31:40;102271.73;;;-1.97;66.04
76819;BME280;65772;51.096;17.006;2022-12-18T07:34:13;102279.77;;;-1.97;65.93
76819;BME280;65772;51.096;17.006;2022-12-18T07:36:44;102283.00;;;-2.00;65.84
76819;BME280;65772;51.096;17.006;2022-12-18T07:39:14;102286.13;;;-1.98;65.70
76819;BME280;65772;51.096;17.006;2022-12-18T07:41:46;102286.92;;;-1.99;65.40
76819;BME280;65772;51.096;17.006;2022-12-18T07:44:36;102293.02;;;-2.00;65.57
76819;BME280;65772;51.096;17.006;2022-12-18T07:47:08;102297.10;;;-2.00;65.28
76819;BME280;65772;51.096;17.006;2022-12-18T07:49:40;102300.09;;;-2.05;65.62
76819;BME280;65772;51.096;17.006;2022-12-18T07:52:11;102303.88;;;-2.09;65.49
76819;BME280;65772;51.096;17.006;2022-12-18T07:54:41;102298.33;;;-2.12;65.35
76819;BME280;65772;51.096;17.006;2022-12-18T07:57:12;102290.20;;;-2.16;65.33
76819;BME280;65772;51.096;17.006;2022-12-18T08:00:03;102294.12;;;-2.20;65.29
76819;BME280;65772;51.096;17.006;2022-12-18T08:02:40;102306.02;;;-2.21;65.33
76819;BME280;65772;51.096;17.006;2022-12-18T08:05:11;102307.21;;;-2.23;65.03
76819;BME280;65772;51.096;17.006;2022-12-18T08:07:42;102306.58;;;-2.22;65.21
76819;BME280;65772;51.096;17.006;2022-12-18T08:10:13;102309.73;;;-2.23;65.11
76819;BME280;65772;51.096;17.006;2022-12-18T08:12:43;102314.38;;;-2.21;65.39
76819;BME280;65772;51.096;17.006;2022-12-18T08:15:14;102316.61;;;-2.21;65.28
76819;BME280;65772;51.096;17.006;2022-12-18T08:17:45;102319.86;;;-2.18;65.07
76819;BME280;65772;51.096;17.006;2022-12-18T08:20:15;102319.20;;;-2.17;65.26
76819;BME280;65772;51.096;17.006;2022-12-18T08:22:47;102325.62;;;-2.16;65.05
76819;BME280;65772;51.096;17.006;2022-12-18T08:25:18;102331.83;;;-2.16;65.07
76819;BME280;65772;51.096;17.006;2022-12-18T08:27:48;102334.12;;;-2.16;65.11
76819;BME280;65772;51.096;17.006;2022-12-18T08:30:19;102334.87;;;-2.17;65.17
76819;BME280;65772;51.096;17.006;2022-12-18T08:32:53;102333.94;;;-2.17;64.94
76819;BME280;65772;51.096;17.006;2022-12-18T08:35:24;102343.01;;;-2.17;65.12
76819;BME280;65772;51.096;17.006;2022-12-18T08:37:54;102348.88;;;-2.15;65.32
76819;BME280;65772;51.096;17.006;2022-12-18T08:40:24;102350.06;;;-2.13;65.25
76819;BME280;65772;51.096;17.006;2022-12-18T08:42:55;102353.71;;;-2.12;65.18
76819;BME280;65772;51.096;17.006;2022-12-18T08:45:43;102352.29;;;-2.11;65.07
76819;BME280;65772;51.096;17.006;2022-12-18T08:48:14;102349.36;;;-2.10;65.10
76819;BME280;65772;51.096;17.006;2022-12-18T08:50:56;102358.87;;;-2.09;64.97
76819;BME280;65772;51.096;17.006;2022-12-18T08:53:27;102358.33;;;-2.08;64.99
76819;BME280;65772;51.096;17.006;2022-12-18T08:56:05;102360.65;;;-2.07;64.96
76819;BME280;65772;51.096;17.006;2022-12-18T08:58:35;102363.19;;;-2.05;65.07
76819;BME280;65772;51.096;17.006;2022-12-18T09:01:07;102362.61;;;-2.03;64.74
76819;BME280;65772;51.096;17.006;2022-12-18T09:03:39;102358.48;;;-1.99;64.74
76819;BME280;65772;51.096;17.006;2022-12-18T09:06:14;102361.59;;;-1.95;64.87
76819;BME280;65772;51.096;17.006;2022-12-18T09:08:46;102355.70;;;-1.94;64.93
76819;BME280;65772;51.096;17.006;2022-12-18T09:11:21;102349.28;;;-1.92;64.69
76819;BME280;65772;51.096;17.006;2022-12-18T09:13:52;102338.76;;;-1.88;64.54
76819;BME280;65772;51.096;17.006;2022-12-18T09:16:24;102333.88;;;-1.86;64.47
76819;BME280;65772;51.096;17.006;2022-12-18T09:19:01;102325.36;;;-1.82;64.73
76819;BME280;65772;51.096;17.006;2022-12-18T09:21:33;102321.98;;;-1.81;64.35
76819;BME280;65772;51.096;17.006;2022-12-18T09:24:08;102317.52;;;-1.78;64.56
76819;BME280;65772;51.096;17.006;2022-12-18T09:26:41;102314.57;;;-1.74;64.40
76819;BME280;65772;51.096;17.006;2022-12-18T09:29:15;102306.37;;;-1.71;64.53
76819;BME280;65772;51.096;17.006;2022-12-18T09:31:47;102296.40;;;-1.69;64.32
76819;BME280;65772;51.096;17.006;2022-12-18T09:34:19;102294.80;;;-1.67;64.23
76819;BME280;65772;51.096;17.006;2022-12-18T09:36:51;102293.63;;;-1.62;63.98
76819;BME280;65772;51.096;17.006;2022-12-18T09:39:22;102292.88;;;-1.55;64.11
76819;BME280;65772;51.096;17.006;2022-12-18T09:41:54;102292.10;;;-1.49;63.87
76819;BME280;65772;51.096;17.006;2022-12-18T09:44:29;102291.91;;;-1.39;63.67
76819;BME280;65772;51.096;17.006;2022-12-18T09:47:09;102292.98;;;-1.29;63.73
76819;BME280;65772;51.096;17.006;2022-12-18T09:49:44;102289.30;;;-1.23;63.52
76819;BME280;65772;51.096;17.006;2022-12-18T09:52:19;102293.27;;;-1.18;63.46
76819;BME280;65772;51.096;17.006;2022-12-18T09:54:55;102293.68;;;-1.14;63.31
76819;BME280;65772;51.096;17.006;2022-12-18T09:57:28;102294.66;;;-1.14;63.05
76819;BME280;65772;51.096;17.006;2022-12-18T10:00:08;102296.89;;;-1.15;63.09
76819;BME280;65772;51.096;17.006;2022-12-18T10:02:43;102285.40;;;-1.21;62.74
76819;BME280;65772;51.096;17.006;2022-12-18T10:05:15;102291.81;;;-1.23;62.92
76819;BME280;65772;51.096;17.006;2022-12-18T10:07:53;102296.73;;;-1.23;62.88
76819;BME280;65772;51.096;17.006;2022-12-18T10:10:32;102297.16;;;-1.27;62.76
76819;BME280;65772;51.096;17.006;2022-12-18T10:13:05;102297.89;;;-1.31;62.70
76819;BME280;65772;51.096;17.006;2022-12-18T10:15:43;102300.51;;;-1.35;62.72
76819;BME280;65772;51.096;17.006;2022-12-18T10:18:25;102305.79;;;-1.38;62.87
76819;BME280;65772;51.096;17.006;2022-12-18T10:21:05;102311.33;;;-1.42;62.79
76819;BME280;65772;51.096;17.006;2022-12-18T10:23:39;102310.23;;;-1.45;62.75
76819;BME280;65772;51.096;17.006;2022-12-18T10:26:16;102311.08;;;-1.48;62.80
76819;BME280;65772;51.096;17.006;2022-12-18T10:28:48;102315.62;;;-1.48;62.72
76819;BME280;65772;51.096;17.006;2022-12-18T10:31:21;102321.15;;;-1.48;62.76
76819;BME280;65772;51.096;17.006;2022-12-18T10:33:54;102310.72;;;-1.52;62.76
76819;BME280;65772;51.096;17.006;2022-12-18T10:36:24;102307.83;;;-1.55;62.82
76819;BME280;65772;51.096;17.006;2022-12-18T10:38:55;102309.92;;;-1.56;62.93
76819;BME280;65772;51.096;17.006;2022-12-18T10:41:43;102306.75;;;-1.60;62.97
76819;BME280;65772;51.096;17.006;2022-12-18T10:44:18;102303.21;;;-1.62;62.98
76819;BME280;65772;51.096;17.006;2022-12-18T10:46:51;102299.09;;;-1.64;62.77
76819;BME280;65772;51.096;17.006;2022-12-18T10:49:27;102300.29;;;-1.67;62.84
76819;BME280;65772;51.096;17.006;2022-12-18T10:52:18;102300.26;;;-1.67;63.11
76819;BME280;65772;51.096;17.006;2022-12-18T10:54:51;102299.14;;;-1.67;62.98
76819;BME280;65772;51.096;17.006;2022-12-18T10:57:36;102301.75;;;-1.66;63.06
76819;BME280;65772;51.096;17.006;2022-12-18T11:03:07;102305.38;;;-1.60;63.18
76819;BME280;65772;51.096;17.006;2022-12-18T11:06:03;102305.54;;;-1.59;63.15
76819;BME280;65772;51.096;17.006;2022-12-18T11:08:34;102311.23;;;-1.58;63.23
76819;BME280;65772;51.096;17.006;2022-12-18T11:11:14;102309.70;;;-1.56;63.05
76819;BME280;65772;51.096;17.006;2022-12-18T11:13:55;102312.97;;;-1.55;63.04
76819;BME280;65772;51.096;17.006;2022-12-18T11:16:29;102320.30;;;-1.51;63.28
76819;BME280;65772;51.096;17.006;2022-12-18T11:19:15;102326.42;;;-1.49;63.24
76819;BME280;65772;51.096;17.006;2022-12-18T11:21:51;102327.23;;;-1.49;62.99
76819;BME280;65772;51.096;17.006;2022-12-18T11:24:26;102330.70;;;-1.51;63.17
76819;BME280;65772;51.096;17.006;2022-12-18T11:26:59;102336.73;;;-1.50;63.14
76819;BME280;65772;51.096;17.006;2022-12-18T11:29:35;102343.11;;;-1.48;63.08
76819;BME280;65772;51.096;17.006;2022-12-18T11:32:32;102345.30;;;-1.48;62.98
76819;BME280;65772;51.096;17.006;2022-12-18T11:35:12;102338.58;;;-1.48;63.00
76819;BME280;65772;51.096;17.006;2022-12-18T11:37:49;102333.19;;;-1.48;62.89
76819;BME280;65772;51.096;17.006;2022-12-18T11:40:27;102329.58;;;-1.48;62.79
76819;BME280;65772;51.096;17.006;2022-12-18T11:43:12;102325.25;;;-1.44;62.81
76819;BME280;65772;51.096;17.006;2022-12-18T11:45:52;102314.98;;;-1.43;62.91
76819;BME280;65772;51.096;17.006;2022-12-18T11:48:25;102309.77;;;-1.46;62.70
76819;BME280;65772;51.096;17.006;2022-12-18T11:50:58;102311.20;;;-1.47;62.50
76819;BME280;65772;51.096;17.006;2022-12-18T11:53:31;102306.52;;;-1.45;62.61
76819;BME280;65772;51.096;17.006;2022-12-18T11:56:08;102301.45;;;-1.41;62.81
76819;BME280;65772;51.096;17.006;2022-12-18T11:58:50;102301.48;;;-1.36;62.39
76819;BME280;65772;51.096;17.006;2022-12-18T12:01:35;102295.92;;;-1.32;62.70
76819;BME280;65772;51.096;17.006;2022-12-18T12:04:37;102295.98;;;-1.27;62.56
76819;BME280;65772;51.096;17.006;2022-12-18T12:07:21;102298.61;;;-1.24;62.58
76819;BME280;65772;51.096;17.006;2022-12-18T12:10:03;102297.94;;;-1.21;62.50
76819;BME280;65772;51.096;17.006;2022-12-18T12:12:51;102298.51;;;-1.20;62.50
76819;BME280;65772;51.096;17.006;2022-12-18T12:15:34;102298.41;;;-1.21;62.32
76819;BME280;65772;51.096;17.006;2022-12-18T12:18:20;102295.94;;;-1.27;62.31
76819;BME280;65772;51.096;17.006;2022-12-18T12:21:02;102303.51;;;-1.33;62.19
76819;BME280;65772;51.096;17.006;2022-12-18T12:23:39;102297.85;;;-1.35;62.30
76819;BME280;65772;51.096;17.006;2022-12-18T12:26:17;102289.81;;;-1.35;62.29
76819;BME280;65772;51.096;17.006;2022-12-18T12:28:59;102292.71;;;-1.35;62.40
76819;BME280;65772;51.096;17.006;2022-12-18T12:31:46;102296.16;;;-1.35;62.34
76819;BME280;65772;51.096;17.006;2022-12-18T12:34:21;102292.67;;;-1.37;62.22
76819;BME280;65772;51.096;17.006;2022-12-18T12:37:03;102291.48;;;-1.39;62.57
76819;BME280;65772;51.096;17.006;2022-12-18T12:39:40;102291.54;;;-1.41;62.17
76819;BME280;65772;51.096;17.006;2022-12-18T12:42:17;102288.23;;;-1.41;62.51
76819;BME280;65772;51.096;17.006;2022-12-18T12:45:05;102286.83;;;-1.40;62.50
76819;BME280;65772;51.096;17.006;2022-12-18T12:47:40;102286.72;;;-1.35;62.35
76819;BME280;65772;51.096;17.006;2022-12-18T12:50:17;102288.75;;;-1.31;62.63
76819;BME280;65772;51.096;17.006;2022-12-18T12:52:53;102281.28;;;-1.32;62.45
76819;BME280;65772;51.096;17.006;2022-12-18T12:55:26;102292.18;;;-1.35;62.33
76819;BME280;65772;51.096;17.006;2022-12-18T12:58:05;102294.92;;;-1.39;62.44
76819;BME280;65772;51.096;17.006;2022-12-18T13:00:44;102296.48;;;-1.45;62.43
76819;BME280;65772;51.096;17.006;2022-12-18T13:03:34;102297.91;;;-1.51;62.44
76819;BME280;65772;51.096;17.006;2022-12-18T13:06:16;102300.35;;;-1.53;62.50
76819;BME280;65772;51.096;17.006;2022-12-18T13:08:56;102297.31;;;-1.53;62.43
76819;BME280;65772;51.096;17.006;2022-12-18T13:11:39;102294.16;;;-1.55;62.57
76819;BME280;65772;51.096;17.006;2022-12-18T13:14:32;102289.61;;;-1.52;62.41
76819;BME280;65772;51.096;17.006;2022-12-18T13:17:28;102290.90;;;-1.47;62.49
76819;BME280;65772;51.096;17.006;2022-12-18T13:20:11;102289.17;;;-1.43;62.53
76819;BME280;65772;51.096;17.006;2022-12-18T13:22:46;102292.14;;;-1.37;62.76